PWSweather.com
Personal Weather Stations
Station Observations
KJ4AJP
Beautiful Downtown Gardner, Martin, TN 38237

Beautiful Downtown GardnerMartin, TN 38237

Lat: 36.358, Lon: -88.8994

Elevation: 384.3

Station Type: TP1080WC

http://weather.mambm.com/

High Low Average
Temperature 70.0°F21.1°C 32.9°F0.5°C 52.2°F11.2°C
Dew Point 50.0°F10.0°C 29.6°F-1.3°C 41.3°F5.2°C
Winds 13.0 mph 20.9 kmh 0.7 mph 1.1 kmh 4.0 mph SSW6.4 kmh SSW
Wind Gusts 22.1 mph35.6 kmh 2.2 mph3.5 kmh 10.0 mph16.1 kmh
Humidity 93% 45% 69%
Pressure 30.04 in1017.3 mb 29.85 in1010.8 mb -
Precipitation 0.00 in0.0 mm - -
Hour Temp Dew Point Humidity Winds Wind Gusts Pressure Precip Precip Rate Daily Precip Total
12:00 AM 38.7°F3.7°C 32.4°F0.2°C 78% 4.5 mph SSW7.2 kmh SSW 8.3 mph13.4 kmh 30.04 in1017.3 mb 0.00 in0.0 mm 0.00 in0.0 mm 0.00 in0.0 mm
12:15 AM 39.6°F4.2°C 32.6°F0.3°C 76% 3.1 mph SSW5.0 kmh SSW 9.8 mph15.8 kmh 30.03 in1016.9 mb 0.00 in0.0 mm 0.00 in0.0 mm 0.00 in0.0 mm
12:30 AM 39.7°F4.3°C 32.8°F0.4°C 76% 2.2 mph SW3.5 kmh SW 9.2 mph14.8 kmh 30.03 in1016.9 mb 0.00 in0.0 mm 0.00 in0.0 mm 0.00 in0.0 mm
12:45 AM 39.9°F4.4°C 32.7°F0.4°C 75% 3.1 mph SW5.0 kmh SW 9.2 mph14.8 kmh 30.04 in1017.3 mb 0.00 in0.0 mm 0.00 in0.0 mm 0.00 in0.0 mm
01:00 AM 39.6°F4.2°C 32.3°F0.2°C 75% 3.1 mph SW5.0 kmh SW 6.9 mph11.1 kmh 30.03 in1016.9 mb 0.00 in0.0 mm 0.00 in0.0 mm 0.00 in0.0 mm
01:15 AM 39.0°F3.9°C 31.8°F-0.1°C 75% 1.6 mph SW2.6 kmh SW 5.4 mph8.7 kmh 30.03 in1016.9 mb 0.00 in0.0 mm 0.00 in0.0 mm 0.00 in0.0 mm
01:30 AM 37.9°F3.3°C 31.1°F-0.5°C 76% 0.7 mph SSW1.1 kmh SSW 3.8 mph6.1 kmh 30.03 in1016.9 mb 0.00 in0.0 mm 0.00 in0.0 mm 0.00 in0.0 mm
01:45 AM 36.9°F2.7°C 30.3°F-0.9°C 77% 0.7 mph S1.1 kmh S 2.2 mph3.5 kmh 30.03 in1016.9 mb 0.00 in0.0 mm 0.00 in0.0 mm 0.00 in0.0 mm
02:00 AM 36.0°F2.2°C 30.1°F-1.1°C 79% 1.6 mph S2.6 kmh S 3.8 mph6.1 kmh 30.01 in1016.3 mb 0.00 in0.0 mm 0.00 in0.0 mm 0.00 in0.0 mm
02:15 AM 35.4°F1.9°C 29.9°F-1.2°C 80% 0.7 mph S1.1 kmh S 2.2 mph3.5 kmh 30.01 in1016.3 mb 0.00 in0.0 mm 0.00 in0.0 mm 0.00 in0.0 mm
02:30 AM 35.2°F1.8°C 30.0°F-1.1°C 81% 1.6 mph S2.6 kmh S 3.1 mph5.0 kmh 30.02 in1016.6 mb 0.00 in0.0 mm 0.00 in0.0 mm 0.00 in0.0 mm
02:45 AM 34.9°F1.6°C 30.0°F-1.1°C 82% 0.7 mph S1.1 kmh S 3.8 mph6.1 kmh 30.00 in1015.9 mb 0.00 in0.0 mm 0.00 in0.0 mm 0.00 in0.0 mm
03:00 AM 34.5°F1.4°C 29.9°F-1.2°C 83% 1.6 mph S2.6 kmh S 3.8 mph6.1 kmh 30.00 in1015.9 mb 0.00 in0.0 mm 0.00 in0.0 mm 0.00 in0.0 mm
03:15 AM 34.0°F1.1°C 29.7°F-1.3°C 84% 1.6 mph S2.6 kmh S 4.5 mph7.2 kmh 30.00 in1015.9 mb 0.00 in0.0 mm 0.00 in0.0 mm 0.00 in0.0 mm
03:30 AM 33.8°F1.0°C 29.8°F-1.2°C 85% 2.2 mph S3.5 kmh S 3.8 mph6.1 kmh 29.99 in1015.6 mb 0.00 in0.0 mm 0.00 in0.0 mm 0.00 in0.0 mm
03:45 AM 33.6°F0.9°C 29.6°F-1.3°C 85% 2.2 mph S3.5 kmh S 4.5 mph7.2 kmh 29.99 in1015.6 mb 0.00 in0.0 mm 0.00 in0.0 mm 0.00 in0.0 mm
04:00 AM 33.4°F0.8°C 29.7°F-1.3°C 86% 1.6 mph S2.6 kmh S 4.5 mph7.2 kmh 29.99 in1015.6 mb 0.00 in0.0 mm 0.00 in0.0 mm 0.00 in0.0 mm
04:15 AM 33.4°F0.8°C 30.0°F-1.1°C 87% 1.6 mph S2.6 kmh S 4.5 mph7.2 kmh 29.99 in1015.6 mb 0.00 in0.0 mm 0.00 in0.0 mm 0.00 in0.0 mm
04:30 AM 33.3°F0.7°C 30.1°F-1.1°C 88% 1.6 mph S2.6 kmh S 4.5 mph7.2 kmh 29.98 in1015.2 mb 0.00 in0.0 mm 0.00 in0.0 mm 0.00 in0.0 mm
04:45 AM 33.6°F0.9°C 30.7°F-0.7°C 89% 1.6 mph S2.6 kmh S 6.0 mph9.7 kmh 29.98 in1015.2 mb 0.00 in0.0 mm 0.00 in0.0 mm 0.00 in0.0 mm
05:00 AM 33.6°F0.9°C 30.5°F-0.8°C 88% 2.2 mph S3.5 kmh S 12.1 mph19.5 kmh 29.98 in1015.2 mb 0.00 in0.0 mm 0.00 in0.0 mm 0.00 in0.0 mm
05:15 AM 33.4°F0.8°C 30.6°F-0.8°C 89% 2.2 mph S3.5 kmh S 4.5 mph7.2 kmh 29.98 in1015.2 mb 0.00 in0.0 mm 0.00 in0.0 mm 0.00 in0.0 mm
05:30 AM 33.1°F0.6°C 30.2°F-1.0°C 89% 2.2 mph S3.5 kmh S 5.4 mph8.7 kmh 29.98 in1015.2 mb 0.00 in0.0 mm 0.00 in0.0 mm 0.00 in0.0 mm
05:45 AM 32.9°F0.5°C 30.3°F-0.9°C 90% 2.2 mph S3.5 kmh S 4.5 mph7.2 kmh 29.98 in1015.2 mb 0.00 in0.0 mm 0.00 in0.0 mm 0.00 in0.0 mm
06:00 AM 32.9°F0.5°C 30.3°F-0.9°C 90% 2.2 mph SSW3.5 kmh SSW 6.0 mph9.7 kmh 29.99 in1015.6 mb 0.00 in0.0 mm 0.00 in0.0 mm 0.00 in0.0 mm
06:15 AM 32.9°F0.5°C 30.6°F-0.8°C 91% 1.6 mph SSW2.6 kmh SSW 6.0 mph9.7 kmh 29.99 in1015.6 mb 0.00 in0.0 mm 0.00 in0.0 mm 0.00 in0.0 mm
06:30 AM 33.3°F0.7°C 31.2°F-0.4°C 92% 0.7 mph S1.1 kmh S 4.5 mph7.2 kmh 29.99 in1015.6 mb 0.00 in0.0 mm 0.00 in0.0 mm 0.00 in0.0 mm
06:45 AM 33.8°F1.0°C 31.7°F-0.2°C 92% 1.6 mph S2.6 kmh S 5.4 mph8.7 kmh 30.00 in1015.9 mb 0.00 in0.0 mm 0.00 in0.0 mm 0.00 in0.0 mm
07:00 AM 35.2°F1.8°C 33.4°F0.8°C 93% 2.2 mph S3.5 kmh S 4.5 mph7.2 kmh 30.00 in1015.9 mb 0.00 in0.0 mm 0.00 in0.0 mm 0.00 in0.0 mm
07:15 AM 37.8°F3.2°C 35.4°F1.9°C 91% 3.1 mph SSW5.0 kmh SSW 7.6 mph12.2 kmh 30.00 in1015.9 mb 0.00 in0.0 mm 0.00 in0.0 mm 0.00 in0.0 mm
07:30 AM 41.0°F5.0°C 38.0°F3.3°C 89% 2.2 mph SSW3.5 kmh SSW 9.8 mph15.8 kmh 30.00 in1015.9 mb 0.00 in0.0 mm 0.00 in0.0 mm 0.00 in0.0 mm
07:45 AM 44.1°F6.7°C 39.8°F4.3°C 85% 4.5 mph SW7.2 kmh SW 9.2 mph14.8 kmh 30.00 in1015.9 mb 0.00 in0.0 mm 0.00 in0.0 mm 0.00 in0.0 mm
08:00 AM 46.6°F8.1°C 41.1°F5.1°C 81% 4.5 mph SW7.2 kmh SW 9.8 mph15.8 kmh 30.00 in1015.9 mb 0.00 in0.0 mm 0.00 in0.0 mm 0.00 in0.0 mm
08:15 AM 48.4°F9.1°C 41.8°F5.4°C 78% 6.0 mph SW9.7 kmh SW 11.4 mph18.3 kmh 30.00 in1015.9 mb 0.00 in0.0 mm 0.00 in0.0 mm 0.00 in0.0 mm
08:30 AM 49.6°F9.8°C 42.0°F5.6°C 75% 5.4 mph WSW8.7 kmh WSW 15.2 mph24.5 kmh 29.99 in1015.6 mb 0.00 in0.0 mm 0.00 in0.0 mm 0.00 in0.0 mm
08:45 AM 51.3°F10.7°C 42.9°F6.1°C 73% 5.4 mph WSW8.7 kmh WSW 11.4 mph18.3 kmh 29.99 in1015.6 mb 0.00 in0.0 mm 0.00 in0.0 mm 0.00 in0.0 mm
09:00 AM 52.9°F11.6°C 44.1°F6.7°C 72% 4.5 mph SW7.2 kmh SW 16.8 mph27.0 kmh 29.99 in1015.6 mb 0.00 in0.0 mm 0.00 in0.0 mm 0.00 in0.0 mm
09:15 AM 54.7°F12.6°C 44.7°F7.1°C 69% 4.5 mph SW7.2 kmh SW 13.6 mph21.9 kmh 29.99 in1015.6 mb 0.00 in0.0 mm 0.00 in0.0 mm 0.00 in0.0 mm
09:30 AM 56.1°F13.4°C 44.5°F6.9°C 65% 9.8 mph SW15.8 kmh SW 15.2 mph24.5 kmh 29.99 in1015.6 mb 0.00 in0.0 mm 0.00 in0.0 mm 0.00 in0.0 mm
09:45 AM 57.9°F14.4°C 44.6°F7.0°C 61% 9.2 mph SW14.8 kmh SW 16.8 mph27.0 kmh 29.98 in1015.2 mb 0.00 in0.0 mm 0.00 in0.0 mm 0.00 in0.0 mm
10:00 AM 59.4°F15.2°C 45.0°F7.2°C 59% 9.2 mph SW14.8 kmh SW 14.5 mph23.3 kmh 29.98 in1015.2 mb 0.00 in0.0 mm 0.00 in0.0 mm 0.00 in0.0 mm
10:15 AM 61.0°F16.1°C 46.1°F7.8°C 58% 6.0 mph SW9.7 kmh SW 14.5 mph23.3 kmh 29.97 in1014.9 mb 0.00 in0.0 mm 0.00 in0.0 mm 0.00 in0.0 mm
10:30 AM 61.9°F16.6°C 46.5°F8.1°C 57% 5.4 mph SSW8.7 kmh SSW 14.5 mph23.3 kmh 29.96 in1014.6 mb 0.00 in0.0 mm 0.00 in0.0 mm 0.00 in0.0 mm
10:45 AM 62.8°F17.1°C 46.4°F8.0°C 55% 3.8 mph SW6.1 kmh SW 13.6 mph21.9 kmh 29.95 in1014.2 mb 0.00 in0.0 mm 0.00 in0.0 mm 0.00 in0.0 mm
11:00 AM 63.9°F17.7°C 46.4°F8.0°C 53% 9.8 mph SSW15.8 kmh SSW 14.5 mph23.3 kmh 29.96 in1014.6 mb 0.00 in0.0 mm 0.00 in0.0 mm 0.00 in0.0 mm
11:15 AM 64.8°F18.2°C 47.2°F8.4°C 53% 6.9 mph SW11.1 kmh SW 14.5 mph23.3 kmh 29.95 in1014.2 mb 0.00 in0.0 mm 0.00 in0.0 mm 0.00 in0.0 mm
11:30 AM 65.3°F18.5°C 46.7°F8.2°C 51% 9.8 mph SW15.8 kmh SW 17.4 mph28.0 kmh 29.95 in1014.2 mb 0.00 in0.0 mm 0.00 in0.0 mm 0.00 in0.0 mm
11:45 AM 65.8°F18.8°C 48.3°F9.1°C 53% 6.9 mph SW11.1 kmh SW 13.6 mph21.9 kmh 29.95 in1014.2 mb 0.00 in0.0 mm 0.00 in0.0 mm 0.00 in0.0 mm
12:00 PM 66.6°F19.2°C 47.4°F8.6°C 50% 7.6 mph SSW12.2 kmh SSW 15.9 mph25.6 kmh 29.94 in1013.9 mb 0.00 in0.0 mm 0.00 in0.0 mm 0.00 in0.0 mm
12:15 PM 67.3°F19.6°C 49.1°F9.5°C 52% 6.9 mph SW11.1 kmh SW 14.5 mph23.3 kmh 29.93 in1013.5 mb 0.00 in0.0 mm 0.00 in0.0 mm 0.00 in0.0 mm
12:30 PM 67.1°F19.5°C 48.4°F9.1°C 51% 6.0 mph SSW9.7 kmh SSW 18.3 mph29.5 kmh 29.92 in1013.2 mb 0.00 in0.0 mm 0.00 in0.0 mm 0.00 in0.0 mm
12:45 PM 67.3°F19.6°C 48.0°F8.9°C 50% 6.9 mph SW11.1 kmh SW 18.3 mph29.5 kmh 29.92 in1013.2 mb 0.00 in0.0 mm 0.00 in0.0 mm 0.00 in0.0 mm
01:00 PM 67.6°F19.8°C 48.9°F9.4°C 51% 6.9 mph SW11.1 kmh SW 16.8 mph27.0 kmh 29.90 in1012.5 mb 0.00 in0.0 mm 0.00 in0.0 mm 0.00 in0.0 mm
01:15 PM 67.5°F19.7°C 48.2°F9.0°C 50% 9.8 mph SW15.8 kmh SW 19.0 mph30.6 kmh 29.91 in1012.9 mb 0.00 in0.0 mm 0.00 in0.0 mm 0.00 in0.0 mm
01:30 PM 67.8°F19.9°C 48.0°F8.9°C 49% 11.4 mph WSW18.3 kmh WSW 22.1 mph35.6 kmh 29.89 in1012.2 mb 0.00 in0.0 mm 0.00 in0.0 mm 0.00 in0.0 mm
01:45 PM 68.4°F20.2°C 49.0°F9.4°C 50% 7.6 mph SW12.2 kmh SW 16.8 mph27.0 kmh 29.89 in1012.2 mb 0.00 in0.0 mm 0.00 in0.0 mm 0.00 in0.0 mm
02:00 PM 68.7°F20.4°C 48.3°F9.1°C 48% 10.7 mph WSW17.2 kmh WSW 17.4 mph28.0 kmh 29.88 in1011.9 mb 0.00 in0.0 mm 0.00 in0.0 mm 0.00 in0.0 mm
02:15 PM 69.1°F20.6°C 49.7°F9.8°C 50% 7.6 mph SW12.2 kmh SW 18.3 mph29.5 kmh 29.88 in1011.9 mb 0.00 in0.0 mm 0.00 in0.0 mm 0.00 in0.0 mm
02:30 PM 69.4°F20.8°C 49.5°F9.7°C 49% 9.2 mph WSW14.8 kmh WSW 18.3 mph29.5 kmh 29.88 in1011.9 mb 0.00 in0.0 mm 0.00 in0.0 mm 0.00 in0.0 mm
02:45 PM 69.4°F20.8°C 50.0°F10.0°C 50% 5.4 mph WSW8.7 kmh WSW 15.9 mph25.6 kmh 29.88 in1011.9 mb 0.00 in0.0 mm 0.00 in0.0 mm 0.00 in0.0 mm
03:00 PM 70.0°F21.1°C 50.0°F10.0°C 49% 6.0 mph WSW9.7 kmh WSW 16.8 mph27.0 kmh 29.87 in1011.5 mb 0.00 in0.0 mm 0.00 in0.0 mm 0.00 in0.0 mm
03:15 PM 70.0°F21.1°C 48.9°F9.4°C 47% 9.8 mph WSW15.8 kmh WSW 18.3 mph29.5 kmh 29.87 in1011.5 mb 0.00 in0.0 mm 0.00 in0.0 mm 0.00 in0.0 mm
03:30 PM 70.0°F21.1°C 48.3°F9.1°C 46% 8.3 mph WSW13.4 kmh WSW 19.0 mph30.6 kmh 29.87 in1011.5 mb 0.00 in0.0 mm 0.00 in0.0 mm 0.00 in0.0 mm
03:45 PM 69.4°F20.8°C 47.2°F8.4°C 45% 13.0 mph WSW20.9 kmh WSW 19.0 mph30.6 kmh 29.86 in1011.2 mb 0.00 in0.0 mm 0.00 in0.0 mm 0.00 in0.0 mm
04:00 PM 69.1°F20.6°C 47.5°F8.6°C 46% 10.7 mph WSW17.2 kmh WSW 17.4 mph28.0 kmh 29.86 in1011.2 mb 0.00 in0.0 mm 0.00 in0.0 mm 0.00 in0.0 mm
04:15 PM 68.5°F20.3°C 48.1°F8.9°C 48% 7.6 mph SW12.2 kmh SW 19.0 mph30.6 kmh 29.86 in1011.2 mb 0.00 in0.0 mm 0.00 in0.0 mm 0.00 in0.0 mm
04:30 PM 68.2°F20.1°C 48.3°F9.1°C 49% 4.5 mph WSW7.2 kmh WSW 17.4 mph28.0 kmh 29.86 in1011.2 mb 0.00 in0.0 mm 0.00 in0.0 mm 0.00 in0.0 mm
04:45 PM 68.7°F20.4°C 48.8°F9.3°C 49% 5.4 mph WSW8.7 kmh WSW 12.1 mph19.5 kmh 29.86 in1011.2 mb 0.00 in0.0 mm 0.00 in0.0 mm 0.00 in0.0 mm
05:00 PM 68.4°F20.2°C 49.0°F9.4°C 50% 4.5 mph SW7.2 kmh SW 14.5 mph23.3 kmh 29.86 in1011.2 mb 0.00 in0.0 mm 0.00 in0.0 mm 0.00 in0.0 mm
05:15 PM 67.5°F19.7°C 48.2°F9.0°C 50% 6.0 mph SW9.7 kmh SW 13.0 mph20.9 kmh 29.85 in1010.8 mb 0.00 in0.0 mm 0.00 in0.0 mm 0.00 in0.0 mm
05:30 PM 66.7°F19.3°C 48.6°F9.2°C 52% 1.6 mph SW2.6 kmh SW 9.8 mph15.8 kmh 29.86 in1011.2 mb 0.00 in0.0 mm 0.00 in0.0 mm 0.00 in0.0 mm
05:45 PM 65.5°F18.6°C 48.4°F9.1°C 54% 1.6 mph S2.6 kmh S 7.6 mph12.2 kmh 29.86 in1011.2 mb 0.00 in0.0 mm 0.00 in0.0 mm 0.00 in0.0 mm
06:00 PM 63.5°F17.5°C 47.5°F8.6°C 56% 3.1 mph S5.0 kmh S 7.6 mph12.2 kmh 29.86 in1011.2 mb 0.00 in0.0 mm 0.00 in0.0 mm 0.00 in0.0 mm
06:15 PM 61.7°F16.5°C 46.8°F8.2°C 58% 3.8 mph SW6.1 kmh SW 9.2 mph14.8 kmh 29.86 in1011.2 mb 0.00 in0.0 mm 0.00 in0.0 mm 0.00 in0.0 mm
06:30 PM 60.1°F15.6°C 46.2°F7.9°C 60% 3.1 mph S5.0 kmh S 7.6 mph12.2 kmh 29.86 in1011.2 mb 0.00 in0.0 mm 0.00 in0.0 mm 0.00 in0.0 mm
06:45 PM 58.6°F14.8°C 45.7°F7.6°C 62% 2.2 mph SW3.5 kmh SW 4.5 mph7.2 kmh 29.86 in1011.2 mb 0.00 in0.0 mm 0.00 in0.0 mm 0.00 in0.0 mm
07:00 PM 57.2°F14.0°C 45.1°F7.3°C 64% 1.6 mph S2.6 kmh S 6.0 mph9.7 kmh 29.86 in1011.2 mb 0.00 in0.0 mm 0.00 in0.0 mm 0.00 in0.0 mm
07:15 PM 56.3°F13.5°C 45.1°F7.3°C 66% 1.6 mph SW2.6 kmh SW 8.3 mph13.4 kmh 29.86 in1011.2 mb 0.00 in0.0 mm 0.00 in0.0 mm 0.00 in0.0 mm
07:30 PM 55.4°F13.0°C 44.6°F7.0°C 67% 4.5 mph SSW7.2 kmh SSW 9.8 mph15.8 kmh 29.86 in1011.2 mb 0.00 in0.0 mm 0.00 in0.0 mm 0.00 in0.0 mm
07:45 PM 55.2°F12.9°C 44.9°F7.2°C 68% 1.6 mph S2.6 kmh S 6.9 mph11.1 kmh 29.86 in1011.2 mb 0.00 in0.0 mm 0.00 in0.0 mm 0.00 in0.0 mm
08:00 PM 54.3°F12.4°C 44.4°F6.9°C 69% 1.6 mph S2.6 kmh S 6.0 mph9.7 kmh 29.87 in1011.5 mb 0.00 in0.0 mm 0.00 in0.0 mm 0.00 in0.0 mm
08:15 PM 53.4°F11.9°C 44.3°F6.8°C 71% 1.6 mph S2.6 kmh S 6.0 mph9.7 kmh 29.86 in1011.2 mb 0.00 in0.0 mm 0.00 in0.0 mm 0.00 in0.0 mm
08:30 PM 53.1°F11.7°C 44.3°F6.8°C 72% 3.1 mph S5.0 kmh S 9.2 mph14.8 kmh 29.87 in1011.5 mb 0.00 in0.0 mm 0.00 in0.0 mm 0.00 in0.0 mm
08:45 PM 52.9°F11.6°C 44.5°F6.9°C 73% 1.6 mph S2.6 kmh S 7.6 mph12.2 kmh 29.86 in1011.2 mb 0.00 in0.0 mm 0.00 in0.0 mm 0.00 in0.0 mm
09:00 PM 53.4°F11.9°C 44.6°F7.0°C 72% 1.6 mph SSW2.6 kmh SSW 6.0 mph9.7 kmh 29.87 in1011.5 mb 0.00 in0.0 mm 0.00 in0.0 mm 0.00 in0.0 mm
09:15 PM 53.2°F11.8°C 44.5°F6.9°C 72% 3.8 mph SSW6.1 kmh SSW 6.9 mph11.1 kmh 29.87 in1011.5 mb 0.00 in0.0 mm 0.00 in0.0 mm 0.00 in0.0 mm
09:30 PM 52.5°F11.4°C 44.1°F6.7°C 73% 3.1 mph S5.0 kmh S 6.9 mph11.1 kmh 29.87 in1011.5 mb 0.00 in0.0 mm 0.00 in0.0 mm 0.00 in0.0 mm
09:45 PM 52.3°F11.3°C 44.3°F6.8°C 74% 2.2 mph S3.5 kmh S 6.9 mph11.1 kmh 29.87 in1011.5 mb 0.00 in0.0 mm 0.00 in0.0 mm 0.00 in0.0 mm
10:00 PM 52.2°F11.2°C 44.1°F6.7°C 74% 3.1 mph SSW5.0 kmh SSW 6.0 mph9.7 kmh 29.86 in1011.2 mb 0.00 in0.0 mm 0.00 in0.0 mm 0.00 in0.0 mm
10:15 PM 52.5°F11.4°C 44.5°F6.9°C 74% 1.6 mph SW2.6 kmh SW 7.6 mph12.2 kmh 29.87 in1011.5 mb 0.00 in0.0 mm 0.00 in0.0 mm 0.00 in0.0 mm
10:30 PM 52.5°F11.4°C 44.5°F6.9°C 74% 2.2 mph S3.5 kmh S 9.2 mph14.8 kmh 29.87 in1011.5 mb 0.00 in0.0 mm 0.00 in0.0 mm 0.00 in0.0 mm
10:45 PM 52.5°F11.4°C 44.5°F6.9°C 74% 1.6 mph S2.6 kmh S 7.6 mph12.2 kmh 29.87 in1011.5 mb 0.00 in0.0 mm 0.00 in0.0 mm 0.00 in0.0 mm
11:00 PM 52.0°F11.1°C 44.3°F6.8°C 75% 3.1 mph S5.0 kmh S 9.2 mph14.8 kmh 29.87 in1011.5 mb 0.00 in0.0 mm 0.00 in0.0 mm 0.00 in0.0 mm
11:15 PM 51.3°F10.7°C 44.3°F6.8°C 77% 3.1 mph S5.0 kmh S 5.4 mph8.7 kmh 29.88 in1011.9 mb 0.00 in0.0 mm 0.00 in0.0 mm 0.00 in0.0 mm
11:30 PM 50.9°F10.5°C 44.6°F7.0°C 79% 0.7 mph S1.1 kmh S 5.4 mph8.7 kmh 29.87 in1011.5 mb 0.00 in0.0 mm 0.00 in0.0 mm 0.00 in0.0 mm
11:45 PM 51.3°F10.7°C 45.3°F7.4°C 80% 1.6 mph S2.6 kmh S 5.4 mph8.7 kmh 29.88 in1011.9 mb 0.00 in0.0 mm 0.00 in0.0 mm 0.00 in0.0 mm